createdAt,value
2019-03-06T00:02:58.947Z,100009.98
2019-03-06T00:05:28.376Z,100006.16
2019-03-06T00:07:59.577Z,100004.45
2019-03-06T00:13:24.943Z,99991.73
2019-03-06T00:15:54.963Z,99998.11
2019-03-06T00:18:24.317Z,99996.41
2019-03-06T00:20:53.790Z,99995.98
2019-03-06T00:23:23.549Z,99994.27
2019-03-06T00:25:53.259Z,99990.88
2019-03-06T00:28:41.594Z,99987.90
2019-03-06T00:31:11.111Z,99990.47
2019-03-06T00:33:40.615Z,99992.57
2019-03-06T00:36:15.889Z,99993.81
2019-03-06T00:38:45.356Z,99991.69
2019-03-06T00:41:20.262Z,99995.48
2019-03-06T00:43:49.700Z,99993.80
2019-03-06T00:46:19.059Z,99988.25
2019-03-06T00:48:48.616Z,99993.37
2019-03-06T00:57:27.518Z,99994.55
2019-03-06T01:02:59.575Z,99808.41
2019-03-06T01:05:42.323Z,99994.14
2019-03-06T01:08:11.713Z,99997.52
2019-03-06T01:13:56.174Z,99994.54
2019-03-06T01:17:04.795Z,99993.70
2019-03-06T01:22:29.585Z,99993.22
2019-03-06T01:24:58.928Z,99977.13
2019-03-06T01:30:26.061Z,99985.23
2019-03-06T01:36:28.412Z,99974.64
2019-03-06T01:39:35.668Z,99971.26
2019-03-06T01:48:34.316Z,99969.14
2019-03-06T01:51:03.822Z,99965.73
2019-03-06T01:53:33.234Z,99967.05
2019-03-06T01:56:02.750Z,99960.25
2019-03-06T01:58:45.679Z,99972.53
2019-03-06T02:01:26.816Z,99971.29
2019-03-06T02:12:30.402Z,99972.95
2019-03-06T02:14:59.868Z,99975.09
2019-03-06T02:17:29.232Z,99971.64
2019-03-06T02:19:58.613Z,99964.38
2019-03-06T02:22:28.035Z,99977.07
2019-03-06T02:24:57.919Z,99981.70
2019-03-06T02:27:27.325Z,99975.34
2019-03-06T02:29:56.662Z,99980.43
2019-03-06T02:32:26.046Z,99971.94
2019-03-06T02:44:25.035Z,99948.98
2019-03-06T02:47:13.260Z,99952.39
2019-03-06T02:53:17.229Z,99952.84
2019-03-06T02:59:19.683Z,99953.32
2019-03-06T03:04:56.700Z,99950.78
2019-03-06T03:07:27.970Z,99952.48
2019-03-06T03:09:57.942Z,99946.10
2019-03-06T03:12:27.399Z,99949.48
2019-03-06T03:14:56.886Z,99948.25
2019-03-06T03:17:26.692Z,99950.34
2019-03-06T03:19:56.500Z,99947.78
2019-03-06T03:22:26.321Z,99946.92
2019-03-06T03:24:55.729Z,99939.28
2019-03-06T03:27:25.142Z,99942.28
2019-03-06T03:30:13.589Z,99942.73
2019-03-06T03:32:43.104Z,99941.84
2019-03-06T03:35:12.685Z,99944.01
2019-03-06T03:37:42.064Z,99944.00
2019-03-06T03:40:12.684Z,99939.78
2019-03-06T03:42:42.196Z,99942.28
2019-03-06T03:45:12.236Z,99938.48
2019-03-06T03:48:00.653Z,99937.63
2019-03-06T03:50:30.115Z,99934.25
2019-03-06T03:53:00.548Z,99929.16
2019-03-06T03:55:30.471Z,99933.39
2019-03-06T03:58:39.125Z,99936.80
2019-03-06T04:01:27.455Z,99939.32
2019-03-06T04:04:16.267Z,99940.63
2019-03-06T04:06:45.809Z,99946.13
2019-03-06T04:09:15.997Z,99941.87
2019-03-06T04:12:04.366Z,99941.88
2019-03-06T04:15:13.170Z,99936.34
2019-03-06T04:17:42.703Z,99938.91
2019-03-06T04:20:12.718Z,99933.36
2019-03-06T04:23:01.180Z,99933.76
2019-03-06T04:26:09.990Z,99936.27
2019-03-06T04:29:18.648Z,99935.41
2019-03-06T04:31:48.240Z,99937.50
2019-03-06T04:34:17.577Z,99931.12
2019-03-06T04:39:43.018Z,99925.59
2019-03-06T04:42:51.666Z,99925.55
2019-03-06T04:46:00.655Z,99921.73
2019-03-06T04:54:27.258Z,99917.83
2019-03-06T04:56:56.645Z,99909.78
2019-03-06T04:59:26.142Z,99906.83
2019-03-06T05:01:56.040Z,99909.00
2019-03-06T05:07:14.101Z,99894.58
2019-03-06T05:09:43.497Z,99895.86
2019-03-06T05:12:12.846Z,99896.27
2019-03-06T05:17:56.558Z,99899.66
2019-03-06T05:23:35.612Z,99903.45
2019-03-06T05:26:04.991Z,99904.31
2019-03-06T05:32:21.932Z,99911.13
2019-03-06T05:38:11.928Z,99913.77
2019-03-06T05:40:41.286Z,99907.05
2019-03-06T05:43:10.690Z,99913.01
2019-03-06T05:45:40.093Z,99910.95
2019-03-06T05:51:43.838Z,99917.62
2019-03-06T05:54:13.208Z,99915.64
2019-03-06T05:57:22.338Z,99908.84
2019-03-06T05:59:51.974Z,99917.73
2019-03-06T06:02:22.147Z,99911.75
2019-03-06T06:05:30.847Z,99912.98
2019-03-06T06:08:00.277Z,99908.30
2019-03-06T06:10:29.675Z,99906.59
2019-03-06T06:13:39.293Z,99915.17
2019-03-06T06:22:30.149Z,99911.38
2019-03-06T06:24:59.679Z,99915.58
2019-03-06T06:27:31.000Z,99911.23
2019-03-06T06:30:00.363Z,99902.45
2019-03-06T06:32:29.786Z,99905.89
2019-03-06T06:34:59.263Z,99905.62
2019-03-06T06:37:28.613Z,99902.25
2019-03-06T06:40:39.048Z,99901.20
2019-03-06T06:43:27.518Z,99893.75
2019-03-06T06:49:07.720Z,99883.81
2019-03-06T06:52:16.611Z,99889.14
2019-03-06T06:55:28.117Z,99886.94
2019-03-06T06:58:41.630Z,99888.65
2019-03-06T07:02:08.166Z,99877.96
2019-03-06T07:05:35.066Z,99879.05
2019-03-06T07:11:32.999Z,99879.87
2019-03-06T07:14:27.342Z,99877.23
2019-03-06T07:17:18.485Z,99892.11
2019-03-06T07:20:06.723Z,99880.87
2019-03-06T07:22:55.185Z,99873.64
2019-03-06T07:29:01.276Z,99874.83
2019-03-06T07:31:47.925Z,99874.44
2019-03-06T07:34:27.304Z,99874.95
2019-03-06T07:37:00.827Z,99867.88
2019-03-06T07:39:50.965Z,99876.53
2019-03-06T07:42:39.477Z,99882.47
2019-03-06T07:46:06.084Z,99872.54
2019-03-06T07:49:15.653Z,99878.03
2019-03-06T07:52:04.236Z,99864.92
2019-03-06T07:54:51.356Z,99860.02
2019-03-06T07:57:28.768Z,99875.81
2019-03-06T07:59:58.299Z,99861.75
2019-03-06T08:08:33.272Z,99841.95
2019-03-06T08:11:04.520Z,99834.86
2019-03-06T08:13:42.006Z,99838.06
2019-03-06T08:16:30.818Z,99826.61
2019-03-06T08:19:21.867Z,99826.86
2019-03-06T08:22:10.124Z,99831.08
2019-03-06T08:24:58.600Z,99811.80
2019-03-06T08:27:28.100Z,99814.35
2019-03-06T08:30:36.874Z,99818.82
2019-03-06T08:33:06.326Z,99830.63
2019-03-06T08:35:35.695Z,99824.19
2019-03-06T08:38:05.174Z,99834.45
2019-03-06T08:40:34.530Z,99837.94
2019-03-06T08:43:43.490Z,99835.59
2019-03-06T08:46:31.786Z,99831.73
2019-03-06T08:49:41.250Z,99827.88
2019-03-06T08:52:28.115Z,99833.64
2019-03-06T08:55:20.391Z,99829.50
2019-03-06T08:58:08.853Z,99839.42
2019-03-06T09:01:17.665Z,99840.80
2019-03-06T09:07:21.684Z,99841.97
2019-03-06T09:10:08.720Z,99840.06
2019-03-06T09:12:44.411Z,99834.05
2019-03-06T09:15:31.981Z,99831.93
2019-03-06T09:18:29.558Z,99827.23
2019-03-06T09:21:14.685Z,99811.67
2019-03-06T09:24:02.905Z,99828.61
2019-03-06T09:26:51.348Z,99836.71
2019-03-06T09:29:27.538Z,99827.11
2019-03-06T09:38:34.094Z,99814.69
2019-03-06T09:44:17.870Z,99830.72
2019-03-06T09:47:06.323Z,99832.73
2019-03-06T09:55:45.243Z,99818.45
2019-03-06T09:58:33.813Z,99820.41
2019-03-06T10:01:22.139Z,99815.08
2019-03-06T10:04:00.181Z,99828.89
2019-03-06T10:06:38.482Z,99817.07
2019-03-06T10:09:41.544Z,99824.84
2019-03-06T10:12:27.590Z,99831.78
2019-03-06T10:15:14.470Z,99849.46
2019-03-06T10:18:03.066Z,99840.25
2019-03-06T10:23:28.164Z,99839.80
2019-03-06T10:28:52.838Z,99823.13
2019-03-06T10:31:22.269Z,99818.46
2019-03-06T10:33:51.714Z,99817.84
2019-03-06T10:36:21.106Z,99819.38
2019-03-06T10:38:50.506Z,99811.10
2019-03-06T10:41:19.997Z,99814.20
2019-03-06T10:43:49.725Z,99822.47
2019-03-06T10:46:19.336Z,99813.03
2019-03-06T10:48:48.798Z,99819.33
2019-03-06T10:51:18.487Z,99812.81
2019-03-06T10:53:48.029Z,99824.72
2019-03-06T10:56:20.056Z,99827.00
2019-03-06T10:58:49.662Z,99827.52
2019-03-06T11:01:19.217Z,99822.61
2019-03-06T11:04:07.541Z,99826.65
2019-03-06T11:06:38.158Z,99826.90
2019-03-06T11:09:09.881Z,99832.00
2019-03-06T11:11:39.441Z,99829.63
2019-03-06T11:14:09.937Z,99834.12
2019-03-06T11:16:39.696Z,99840.63
2019-03-06T11:19:09.546Z,99838.99
2019-03-06T11:22:18.244Z,99839.33
2019-03-06T11:31:05.263Z,99835.21
2019-03-06T11:33:36.754Z,99839.09
2019-03-06T11:36:07.074Z,99833.86
2019-03-06T11:39:15.789Z,99837.06
2019-03-06T11:44:59.583Z,99837.27
2019-03-06T11:48:08.255Z,99841.51
2019-03-06T11:51:16.992Z,99835.52
2019-03-06T11:53:46.560Z,99842.44
2019-03-06T11:59:50.160Z,99841.38
2019-03-06T12:05:47.064Z,99840.75
2019-03-06T12:14:32.569Z,99856.23
2019-03-06T12:17:02.045Z,99843.84
2019-03-06T12:19:31.809Z,99844.72
2019-03-06T12:24:57.106Z,99838.73
2019-03-06T12:27:26.488Z,99827.55
2019-03-06T12:29:55.994Z,99820.84
2019-03-06T12:32:27.179Z,99831.25
2019-03-06T12:34:56.827Z,99833.45
2019-03-06T12:37:26.225Z,99835.34
2019-03-06T12:39:55.702Z,99829.81
2019-03-06T12:42:38.479Z,99835.41
2019-03-06T12:45:48.956Z,99849.94
2019-03-06T12:48:37.753Z,99840.22
2019-03-06T12:51:07.252Z,99840.37
2019-03-06T12:53:36.626Z,99838.94
2019-03-06T12:56:06.315Z,99839.02
2019-03-06T12:58:35.705Z,99834.84
2019-03-06T13:01:05.548Z,99846.98
2019-03-06T13:03:34.927Z,99843.42
2019-03-06T13:06:04.784Z,99841.70
2019-03-06T13:08:34.116Z,99841.89
2019-03-06T13:11:03.653Z,99842.55
2019-03-06T13:13:35.847Z,99836.56
2019-03-06T13:16:04.294Z,99847.36
2019-03-06T13:18:33.603Z,99845.53
2019-03-06T13:23:58.861Z,99849.59
2019-03-06T13:26:28.226Z,99840.75
2019-03-06T13:28:57.916Z,99834.88
2019-03-06T13:31:27.361Z,99836.10
2019-03-06T13:34:33.941Z,99840.02
2019-03-06T13:37:03.467Z,99837.55
2019-03-06T13:39:33.104Z,99847.77
2019-03-06T13:42:02.453Z,99862.84
2019-03-06T13:44:32.082Z,99858.50
2019-03-06T13:47:01.480Z,99859.84
2019-03-06T13:49:30.984Z,99853.88
2019-03-06T13:52:00.878Z,99851.89
2019-03-06T13:54:30.444Z,99858.38
2019-03-06T13:56:59.781Z,99864.77
2019-03-06T13:59:29.221Z,99868.44
2019-03-06T14:01:58.934Z,99868.78
2019-03-06T14:10:44.503Z,99861.00
2019-03-06T14:13:13.848Z,99863.36
2019-03-06T14:15:43.327Z,99855.69
2019-03-06T14:18:13.818Z,99858.31
2019-03-06T14:20:43.432Z,99864.40
2019-03-06T14:23:54.214Z,99864.14
2019-03-06T14:26:23.573Z,99866.54
2019-03-06T14:28:55.003Z,99866.00
2019-03-06T14:31:24.374Z,99883.61
2019-03-06T14:33:53.769Z,99873.29
2019-03-06T14:36:23.140Z,99876.73
2019-03-06T14:38:52.586Z,99872.92
2019-03-06T14:41:22.268Z,99871.34
2019-03-06T14:43:51.780Z,99877.75
2019-03-06T14:46:21.296Z,99870.57
2019-03-06T14:48:50.638Z,99871.95
2019-03-06T14:51:20.012Z,99873.80
2019-03-06T14:53:49.426Z,99878.98
2019-03-06T15:05:35.944Z,99885.36
2019-03-06T15:08:44.618Z,99885.59
2019-03-06T15:11:53.360Z,99881.44
2019-03-06T15:14:22.903Z,99871.27
2019-03-06T15:17:31.576Z,99875.33
2019-03-06T15:20:40.581Z,99877.30
2019-03-06T15:26:19.795Z,99871.87
2019-03-06T15:28:49.197Z,99884.05
2019-03-06T15:31:18.619Z,99893.70
2019-03-06T15:34:27.425Z,99887.23
2019-03-06T15:36:57.173Z,99893.62
2019-03-06T15:39:48.911Z,99889.05
2019-03-06T15:48:08.143Z,99889.41
2019-03-06T15:50:37.511Z,99891.38
2019-03-06T15:53:07.078Z,99791.83
2019-03-06T15:55:36.836Z,99887.32
2019-03-06T15:58:06.316Z,99883.25
2019-03-06T16:00:47.419Z,99882.09
2019-03-06T16:03:17.607Z,99874.48
2019-03-06T16:05:47.116Z,99873.23
2019-03-06T16:08:16.605Z,99880.97
2019-03-06T16:14:02.876Z,99882.75
2019-03-06T16:16:32.916Z,99885.34
2019-03-06T16:19:02.605Z,99885.16
2019-03-06T16:25:08.910Z,99892.30
2019-03-06T16:34:00.588Z,99910.70
2019-03-06T16:36:29.961Z,99910.70
2019-03-06T16:39:38.765Z,99901.81
2019-03-06T16:51:35.005Z,99911.92
2019-03-06T16:57:17.150Z,99912.72
2019-03-06T17:00:09.857Z,99915.65
2019-03-06T17:02:39.302Z,99915.65
2019-03-06T17:08:28.471Z,99917.50
2019-03-06T17:10:58.672Z,99919.41
2019-03-06T17:13:28.208Z,99912.61
2019-03-06T17:15:57.955Z,99919.09
2019-03-06T17:18:27.526Z,99919.09
2019-03-06T17:20:57.102Z,99918.48
2019-03-06T17:23:26.633Z,99917.73
2019-03-06T17:25:56.187Z,99920.31
2019-03-06T17:28:25.762Z,99915.59
2019-03-06T17:31:34.525Z,99925.72
2019-03-06T17:34:04.250Z,99923.58
2019-03-06T17:42:17.396Z,99918.86
2019-03-06T17:44:46.883Z,99926.06
2019-03-06T17:47:16.318Z,99917.41
2019-03-06T17:49:45.720Z,99925.02
2019-03-06T17:52:35.511Z,99924.95
2019-03-06T17:55:05.480Z,99927.94
2019-03-06T17:57:35.009Z,99922.84
2019-03-06T18:00:06.468Z,99922.16
2019-03-06T18:02:35.864Z,99922.66
2019-03-06T18:05:05.828Z,99921.38
2019-03-06T18:07:35.718Z,99926.03
2019-03-06T18:10:05.846Z,99926.09
2019-03-06T18:12:35.374Z,99913.80
2019-03-06T18:15:05.556Z,99912.77
2019-03-06T18:17:35.010Z,99920.98
2019-03-06T18:20:05.233Z,99918.16
2019-03-06T18:22:34.785Z,99914.03
2019-03-06T18:25:04.250Z,99903.02
2019-03-06T18:27:33.683Z,99902.23
2019-03-06T18:30:03.168Z,99905.70
2019-03-06T18:32:32.720Z,99904.12
2019-03-06T18:35:02.899Z,99909.66
2019-03-06T18:37:32.911Z,99914.91
2019-03-06T18:40:02.292Z,99919.87
2019-03-06T18:42:31.686Z,99924.80
2019-03-06T18:45:01.106Z,99917.73
2019-03-06T18:47:30.561Z,99917.58
2019-03-06T18:50:00.174Z,99922.88
2019-03-06T18:52:29.731Z,99916.61
2019-03-06T18:54:59.133Z,99922.72
2019-03-06T18:57:28.594Z,99913.53
2019-03-06T18:59:58.437Z,99918.36
2019-03-06T19:02:27.939Z,99909.53
2019-03-06T19:04:57.616Z,99917.25
2019-03-06T19:07:27.309Z,99923.74
2019-03-06T19:09:56.900Z,99923.74
2019-03-06T19:12:26.411Z,99922.82
2019-03-06T19:14:56.028Z,99923.26
2019-03-06T19:17:25.713Z,99923.28
2019-03-06T19:19:56.024Z,99921.56
2019-03-06T19:22:25.513Z,99920.66
2019-03-06T19:24:54.995Z,99923.13
2019-03-06T19:27:24.397Z,99927.03
2019-03-06T19:29:53.854Z,99927.03
2019-03-06T19:32:23.454Z,99929.15
2019-03-06T19:34:53.191Z,99928.43
2019-03-06T19:37:22.814Z,99943.94
2019-03-06T19:39:52.203Z,99936.70
2019-03-06T19:42:21.645Z,99936.70
2019-03-06T19:44:51.111Z,99929.05
2019-03-06T19:47:20.848Z,99930.44
2019-03-06T19:49:50.275Z,99927.89
2019-03-06T19:52:19.681Z,99938.60
2019-03-06T19:54:51.154Z,99942.48
2019-03-06T19:57:20.649Z,99943.47
2019-03-06T19:59:50.127Z,99941.47
2019-03-06T20:02:19.804Z,99940.77
2019-03-06T20:04:49.346Z,99933.21
2019-03-06T20:07:18.813Z,99933.21
2019-03-06T20:09:48.225Z,99942.73
2019-03-06T20:12:17.690Z,99932.48
2019-03-06T20:14:47.159Z,99943.62
2019-03-06T20:17:16.832Z,99943.62
2019-03-06T20:19:46.422Z,99941.58
2019-03-06T20:22:15.918Z,99941.58
2019-03-06T20:24:47.772Z,99953.58
2019-03-06T20:27:17.201Z,99949.78
2019-03-06T20:29:46.693Z,99950.40
2019-03-06T20:32:16.185Z,99950.15
2019-03-06T20:34:45.599Z,99947.72
2019-03-06T20:37:15.153Z,99947.72
2019-03-06T20:39:44.568Z,99946.89
2019-03-06T20:42:14.024Z,99949.53
2019-03-06T20:44:43.520Z,99945.30
2019-03-06T20:47:13.017Z,99953.13
2019-03-06T20:49:42.745Z,99950.66
2019-03-06T20:52:12.153Z,99952.44
2019-03-06T20:54:41.526Z,99952.44
2019-03-06T20:57:11.057Z,99953.23
2019-03-06T20:59:42.582Z,99953.72
2019-03-06T21:02:11.929Z,99962.33
2019-03-06T21:04:41.379Z,99962.33
2019-03-06T21:07:11.237Z,99957.33
2019-03-06T21:09:40.771Z,99957.33
2019-03-06T21:12:10.153Z,99958.13
2019-03-06T21:14:39.579Z,99958.13
2019-03-06T21:17:09.114Z,99949.58
2019-03-06T21:19:38.882Z,99956.12
2019-03-06T21:22:08.540Z,99956.12
2019-03-06T21:24:37.917Z,99956.16
2019-03-06T21:27:07.355Z,99956.16
2019-03-06T21:29:36.907Z,99966.05
2019-03-06T21:32:06.438Z,99964.79
2019-03-06T21:34:35.984Z,99961.36
2019-03-06T21:37:05.668Z,99961.36
2019-03-06T21:39:35.145Z,99961.77
2019-03-06T21:42:04.519Z,99971.19
2019-03-06T21:44:33.890Z,99970.72
2019-03-06T21:47:03.621Z,99978.49
2019-03-06T21:49:33.162Z,99978.49
2019-03-06T21:52:02.786Z,99982.02
2019-03-06T21:54:32.290Z,99975.26
2019-03-06T21:57:01.673Z,99975.26
2019-03-06T21:59:31.043Z,99975.72
2019-03-06T22:02:00.512Z,99974.84
2019-03-06T22:04:29.861Z,99967.61
2019-03-06T22:06:59.532Z,99961.66
2019-03-06T22:09:29.195Z,99963.37
2019-03-06T22:11:58.686Z,99962.13
2019-03-06T22:14:28.305Z,99972.45
2019-03-06T22:16:57.817Z,99962.98
2019-03-06T22:19:27.260Z,99962.98
2019-03-06T22:21:56.648Z,99975.41
2019-03-06T22:24:26.464Z,99978.41
2019-03-06T22:26:55.833Z,99970.78
2019-03-06T22:29:25.223Z,99970.80
2019-03-06T22:31:55.525Z,99980.70
2019-03-06T22:34:25.469Z,99984.16
2019-03-06T22:36:54.866Z,99983.73
2019-03-06T22:39:24.483Z,99988.00
2019-03-06T22:41:53.960Z,99982.06
2019-03-06T22:44:23.386Z,99979.95
2019-03-06T22:46:52.786Z,99985.10
2019-03-06T22:49:22.211Z,99982.59
2019-03-06T22:51:51.707Z,99981.26
2019-03-06T22:54:21.107Z,99981.26
2019-03-06T22:56:50.565Z,99980.89
2019-03-06T22:59:32.069Z,99977.56
2019-03-06T23:02:01.872Z,99977.56
2019-03-06T23:04:31.349Z,99975.92
2019-03-06T23:07:01.118Z,99974.73
2019-03-06T23:09:30.479Z,99969.63
2019-03-06T23:12:00.103Z,99970.05
2019-03-06T23:14:29.483Z,99971.81
2019-03-06T23:16:58.950Z,99969.70
2019-03-06T23:19:28.618Z,99971.00
2019-03-06T23:21:59.692Z,99974.90
2019-03-06T23:24:29.191Z,99967.62
2019-03-06T23:26:58.646Z,99973.99
2019-03-06T23:29:28.092Z,99977.02
2019-03-06T23:31:57.562Z,99970.14
2019-03-06T23:34:26.928Z,99979.09
2019-03-06T23:36:56.334Z,99973.11
2019-03-06T23:39:25.750Z,99971.89
2019-03-06T23:41:55.144Z,99968.93
2019-03-06T23:44:24.548Z,99972.50
2019-03-06T23:46:54.113Z,99972.50
2019-03-06T23:49:23.495Z,99975.98
2019-03-06T23:52:00.150Z,99969.14
2019-03-06T23:54:29.813Z,99969.14
2019-03-06T23:56:59.218Z,99957.20
2019-03-06T23:59:30.064Z,99956.39
